Time;durP1;ratioP1;P1;durP2;ratioP2;P2;SDS_P1;SDS_P2;PMS_P1;PMS_P2;Temp;Humidity;BMP_temperature;BMP_pressure;BME280_temperature;BME280_humidity;BME280_pressure;Samples;Min_cycle;Max_cycle;Signal;HPM_P1;HPM_P2
2022/01/29 00:00:14;;;;;;;21.52;13.02;;;5.00;99.90;;;;;;5069276;28;20306;-85
2022/01/29 00:02:59;;;;;;;21.50;13.18;;;5.00;99.90;;;;;;5075835;28;20211;-85
2022/01/29 00:05:47;;;;;;;24.42;13.60;;;5.00;99.90;;;;;;5073521;28;20266;-85
2022/01/29 00:08:32;;;;;;;25.98;14.63;;;5.00;99.90;;;;;;5070511;28;20196;-85
2022/01/29 00:11:18;;;;;;;26.40;13.95;;;5.00;99.90;;;;;;5072998;28;20220;-86
2022/01/29 00:14:05;;;;;;;24.08;14.38;;;5.00;99.90;;;;;;5069493;28;20204;-85
2022/01/29 00:16:51;;;;;;;24.15;12.82;;;5.00;99.90;;;;;;5073796;28;20222;-86
2022/01/29 00:19:40;;;;;;;35.65;14.88;;;5.00;99.90;;;;;;5067059;28;20199;-85
2022/01/29 00:22:27;;;;;;;24.10;14.45;;;4.90;99.90;;;;;;5076058;28;20270;-85
2022/01/29 00:25:13;;;;;;;21.52;14.70;;;5.00;99.90;;;;;;5070109;28;20581;-85
2022/01/29 00:27:59;;;;;;;30.45;14.55;;;4.90;99.90;;;;;;5075991;28;20211;-86
2022/01/29 00:30:45;;;;;;;28.50;14.43;;;4.90;99.90;;;;;;5077009;28;20267;-86
2022/01/29 00:33:31;;;;;;;24.40;15.45;;;4.90;99.90;;;;;;5080534;28;20265;-85
2022/01/29 00:36:17;;;;;;;24.55;14.40;;;4.90;99.90;;;;;;5065409;28;20295;-85
2022/01/29 00:39:04;;;;;;;33.50;15.77;;;4.90;99.90;;;;;;5078221;28;20199;-85
2022/01/29 00:41:51;;;;;;;28.02;13.65;;;4.90;99.90;;;;;;5076622;28;20196;-85
2022/01/29 00:44:36;;;;;;;27.55;15.50;;;4.90;99.90;;;;;;5071276;28;20331;-85
2022/01/29 00:47:22;;;;;;;27.42;13.18;;;5.00;99.90;;;;;;5062630;28;20425;-86
2022/01/29 00:50:08;;;;;;;20.77;12.60;;;4.90;99.90;;;;;;5073711;28;20265;-85
2022/01/29 00:52:54;;;;;;;23.90;14.30;;;4.90;99.90;;;;;;5070791;28;20302;-86
2022/01/29 00:55:41;;;;;;;26.90;12.77;;;4.90;99.90;;;;;;5060324;28;20570;-85
2022/01/29 00:58:27;;;;;;;23.52;12.93;;;4.90;99.90;;;;;;5073186;28;20207;-85
2022/01/29 01:01:13;;;;;;;22.42;12.60;;;4.90;99.90;;;;;;5077217;28;20203;-85
2022/01/29 01:03:59;;;;;;;22.52;13.82;;;4.90;99.90;;;;;;5067399;28;20200;-85
2022/01/29 01:06:44;;;;;;;22.15;13.18;;;4.90;99.90;;;;;;5062114;28;20577;-85
2022/01/29 01:09:30;;;;;;;20.45;12.75;;;5.00;99.90;;;;;;5070780;28;20299;-85
2022/01/29 01:12:17;;;;;;;17.25;10.63;;;5.00;99.90;;;;;;5079267;28;20573;-85
2022/01/29 01:15:03;;;;;;;18.58;11.45;;;5.10;99.90;;;;;;5074253;28;20196;-85
2022/01/29 01:17:49;;;;;;;21.48;12.13;;;5.10;99.90;;;;;;5071138;28;20223;-86
2022/01/29 01:20:35;;;;;;;17.77;11.88;;;5.10;99.90;;;;;;5081483;28;20321;-85
2022/01/29 01:23:21;;;;;;;18.52;11.48;;;5.00;99.90;;;;;;5071477;28;20200;-86
2022/01/29 01:26:07;;;;;;;20.85;11.50;;;5.10;99.90;;;;;;5072753;28;20223;-86
2022/01/29 01:28:54;;;;;;;25.58;12.02;;;5.10;99.90;;;;;;5077543;28;20207;-86
2022/01/29 01:31:40;;;;;;;18.08;9.52;;;5.10;99.90;;;;;;5081264;28;20196;-86
2022/01/29 01:34:28;;;;;;;18.15;10.73;;;5.10;99.90;;;;;;5078954;28;20247;-85
2022/01/29 01:37:22;;;;;;;18.35;10.88;;;5.10;99.90;;;;;;5074260;28;20227;-85
2022/01/29 01:40:09;;;;;;;19.73;10.75;;;5.20;99.90;;;;;;5076729;28;20199;-85
2022/01/29 01:43:01;;;;;;;19.75;11.77;;;5.20;99.90;;;;;;5080029;28;20199;-86
2022/01/29 01:45:48;;;;;;;23.08;10.18;;;5.20;99.90;;;;;;5064135;28;21692;-85
2022/01/29 01:48:33;;;;;;;19.98;11.07;;;5.10;99.90;;;;;;5097467;22;20281;-70
2022/01/29 01:51:20;;;;;;;23.65;10.43;;;5.10;99.90;;;;;;5079962;28;20300;-70
2022/01/29 01:54:05;;;;;;;18.88;10.43;;;5.10;99.90;;;;;;5075745;22;20245;-87
2022/01/29 01:56:51;;;;;;;27.63;10.98;;;5.00;99.90;;;;;;5056216;28;20839;-87
2022/01/29 01:59:37;;;;;;;20.42;11.07;;;4.80;99.90;;;;;;5031370;28;20252;-87
2022/01/29 02:02:24;;;;;;;20.30;11.27;;;4.90;99.90;;;;;;5043288;28;20222;-87
2022/01/29 02:05:11;;;;;;;17.17;10.32;;;4.90;99.90;;;;;;5035326;28;20262;-87
2022/01/29 02:07:58;;;;;;;21.27;9.98;;;4.90;99.90;;;;;;5035845;28;20786;-87
2022/01/29 02:10:45;;;;;;;20.48;9.65;;;5.00;99.90;;;;;;5043776;28;20197;-87
2022/01/29 02:13:31;;;;;;;19.02;10.32;;;4.90;99.90;;;;;;5031967;28;20294;-88
2022/01/29 02:16:17;;;;;;;21.88;11.27;;;4.90;99.90;;;;;;5035775;28;20200;-87
2022/01/29 02:19:04;;;;;;;21.35;9.65;;;4.90;99.90;;;;;;5040558;28;20220;-87
2022/01/29 02:22:03;;;;;;;19.38;11.32;;;4.90;99.90;;;;;;5041314;28;20201;-87
2022/01/29 02:24:48;;;;;;;18.05;10.98;;;5.00;99.90;;;;;;5026971;28;20272;-87
2022/01/29 02:27:34;;;;;;;18.45;11.30;;;5.00;99.90;;;;;;5044417;28;20272;-85
2022/01/29 02:30:20;;;;;;;13.45;8.48;;;4.90;99.90;;;;;;5039777;28;20702;-87
2022/01/29 02:33:10;;;;;;;16.67;9.57;;;4.90;99.90;;;;;;5038355;28;20315;-87
2022/01/29 02:35:57;;;;;;;20.52;10.63;;;4.90;99.90;;;;;;5032940;28;20217;-87
2022/01/29 02:38:44;;;;;;;18.98;10.48;;;5.00;99.90;;;;;;5039470;28;20237;-87
2022/01/29 02:41:30;;;;;;;18.73;10.45;;;5.00;99.90;;;;;;5030101;28;20229;-87
2022/01/29 02:44:20;;;;;;;21.08;10.45;;;4.90;99.90;;;;;;5029896;28;20205;-87
2022/01/29 02:47:25;;;;;;;17.63;10.38;;;4.90;99.90;;;;;;5044202;28;20251;-87
2022/01/29 02:50:10;;;;;;;18.30;10.40;;;4.90;99.90;;;;;;5034576;28;20714;-87
2022/01/29 02:52:56;;;;;;;22.15;11.45;;;4.80;99.90;;;;;;5038755;28;20221;-88
2022/01/29 02:55:44;;;;;;;20.50;11.20;;;4.80;99.90;;;;;;5039776;28;20190;-87
2022/01/29 02:58:29;;;;;;;17.20;10.35;;;4.70;99.90;;;;;;5044282;28;20292;-87
2022/01/29 03:01:15;;;;;;;15.57;10.35;;;4.70;99.90;;;;;;5034876;28;20324;-87
2022/01/29 03:04:01;;;;;;;19.08;10.73;;;4.70;99.90;;;;;;5033527;28;20268;-87
2022/01/29 03:06:47;;;;;;;21.50;11.07;;;4.60;99.90;;;;;;5028365;28;20209;-87
2022/01/29 03:09:32;;;;;;;20.55;11.25;;;4.70;99.90;;;;;;5032815;28;20202;-87
2022/01/29 03:12:20;;;;;;;20.58;11.40;;;4.70;99.90;;;;;;5033231;28;20205;-87
2022/01/29 03:15:06;;;;;;;19.08;11.38;;;4.60;99.90;;;;;;5041289;28;20224;-87
2022/01/29 03:17:52;;;;;;;19.52;10.82;;;4.60;99.90;;;;;;5029017;28;20296;-87
2022/01/29 03:20:37;;;;;;;16.60;10.85;;;4.60;99.90;;;;;;5038368;28;20766;-87
2022/01/29 03:23:23;;;;;;;20.90;11.82;;;4.60;99.90;;;;;;5029544;28;20710;-87
2022/01/29 03:26:09;;;;;;;20.58;11.52;;;4.60;99.90;;;;;;5037616;28;20736;-87
2022/01/29 03:28:56;;;;;;;18.77;11.20;;;4.60;99.90;;;;;;5040407;28;20217;-87
2022/01/29 03:31:42;;;;;;;18.75;12.18;;;4.60;99.90;;;;;;5036940;28;20200;-87
2022/01/29 03:34:27;;;;;;;20.85;11.65;;;4.60;99.90;;;;;;5026447;28;20216;-87
2022/01/29 03:37:13;;;;;;;20.17;12.18;;;4.60;99.90;;;;;;5029200;28;20225;-87
2022/01/29 03:40:02;;;;;;;20.83;11.98;;;4.50;99.90;;;;;;5041152;28;20201;-87
2022/01/29 03:42:59;;;;;;;21.60;13.05;;;4.60;99.90;;;;;;5027525;28;20713;-87
2022/01/29 03:45:46;;;;;;;24.83;13.38;;;4.60;99.90;;;;;;5038394;28;20201;-87
2022/01/29 03:48:32;;;;;;;21.07;12.40;;;4.60;99.90;;;;;;5031618;28;20217;-86
2022/01/29 03:51:17;;;;;;;22.27;13.02;;;4.70;99.90;;;;;;5033961;28;20422;-87
2022/01/29 03:54:03;;;;;;;26.27;13.95;;;4.50;99.90;;;;;;5036240;28;20755;-87
2022/01/29 03:56:49;;;;;;;25.65;12.82;;;4.60;99.90;;;;;;5038137;28;20276;-87
2022/01/29 03:59:34;;;;;;;24.90;13.02;;;4.60;99.90;;;;;;5031514;28;20270;-87
2022/01/29 04:02:21;;;;;;;25.08;12.60;;;4.60;99.90;;;;;;5031690;28;20206;-87
2022/01/29 04:05:07;;;;;;;20.27;12.73;;;4.50;99.90;;;;;;5034305;28;20607;-87
2022/01/29 04:07:53;;;;;;;20.88;12.13;;;4.50;99.90;;;;;;5037590;28;20222;-88
2022/01/29 04:10:39;;;;;;;22.30;12.63;;;4.50;99.90;;;;;;5029029;28;20288;-87
2022/01/29 04:13:26;;;;;;;21.40;12.40;;;4.50;99.90;;;;;;5033546;28;20193;-87
2022/01/29 04:16:13;;;;;;;25.48;13.30;;;4.50;99.90;;;;;;5037128;28;20709;-87
2022/01/29 04:19:00;;;;;;;24.40;12.20;;;4.60;99.90;;;;;;5037474;28;20229;-87
2022/01/29 04:21:46;;;;;;;26.23;12.85;;;4.50;99.90;;;;;;5028854;28;20236;-88
2022/01/29 04:24:32;;;;;;;21.67;12.00;;;4.60;99.90;;;;;;5032119;28;20201;-87
2022/01/29 04:27:22;;;;;;;26.15;13.23;;;4.60;99.90;;;;;;5041419;28;20221;-87
2022/01/29 04:30:14;;;;;;;22.63;12.68;;;4.70;99.90;;;;;;5025444;28;20202;-87
2022/01/29 04:33:03;;;;;;;28.42;13.45;;;4.60;99.90;;;;;;5029918;28;20194;-87
2022/01/29 04:35:51;;;;;;;21.83;12.23;;;4.50;99.90;;;;;;5027726;28;20216;-87
2022/01/29 04:38:39;;;;;;;20.73;12.97;;;4.50;99.90;;;;;;5033332;28;20272;-87
2022/01/29 04:41:24;;;;;;;21.55;12.15;;;4.50;99.90;;;;;;5037859;28;20496;-87
2022/01/29 04:44:10;;;;;;;19.60;12.02;;;4.50;99.90;;;;;;5037557;28;20243;-87
2022/01/29 04:46:55;;;;;;;35.55;14.32;;;4.30;99.90;;;;;;5034888;28;20193;-87
2022/01/29 04:49:42;;;;;;;27.50;13.80;;;4.30;99.90;;;;;;5020772;28;20194;-87
2022/01/29 04:52:29;;;;;;;29.55;14.52;;;4.30;99.90;;;;;;5029527;28;20190;-87
2022/01/29 04:55:15;;;;;;;24.85;13.65;;;4.30;99.90;;;;;;5034309;28;20254;-87
2022/01/29 04:58:00;;;;;;;22.65;13.30;;;4.40;99.90;;;;;;5036538;28;20232;-87
2022/01/29 05:00:46;;;;;;;26.98;14.27;;;4.40;99.90;;;;;;5028401;28;20240;-87
2022/01/29 05:03:32;;;;;;;23.35;13.77;;;4.30;99.90;;;;;;5032132;28;20561;-87
2022/01/29 05:06:19;;;;;;;25.17;14.43;;;4.40;99.90;;;;;;5027267;28;20192;-87
2022/01/29 05:09:08;;;;;;;22.90;12.88;;;4.40;99.90;;;;;;5037214;28;20221;-87
2022/01/29 05:11:55;;;;;;;24.88;14.77;;;4.40;99.90;;;;;;5038625;28;20702;-87
2022/01/29 05:14:49;;;;;;;26.25;13.32;;;4.50;99.90;;;;;;5031613;28;20615;-87
2022/01/29 05:26:54;;;;;;;24.55;14.75;;;4.30;99.90;;;;;;5040064;28;20197;-87
2022/01/29 05:29:39;;;;;;;22.77;13.60;;;4.20;99.90;;;;;;5036525;28;20200;-87
2022/01/29 05:32:25;;;;;;;32.47;14.75;;;4.30;99.90;;;;;;5027424;28;20303;-87
2022/01/29 05:35:10;;;;;;;29.17;15.75;;;4.30;99.90;;;;;;5031620;28;20292;-87
2022/01/29 05:37:56;;;;;;;28.58;14.30;;;4.30;99.90;;;;;;5041076;28;20587;-88
2022/01/29 05:40:44;;;;;;;29.70;16.10;;;4.30;99.90;;;;;;5030724;28;20225;-87
2022/01/29 05:43:32;;;;;;;23.65;14.35;;;4.30;99.90;;;;;;5031356;28;20216;-87
2022/01/29 05:46:17;;;;;;;28.45;14.25;;;4.30;99.90;;;;;;5031314;28;20253;-87
2022/01/29 05:49:03;;;;;;;26.10;13.80;;;4.30;99.90;;;;;;5040893;28;20216;-87
2022/01/29 05:51:49;;;;;;;24.88;14.38;;;4.30;99.90;;;;;;5031366;28;20276;-87
2022/01/29 05:54:35;;;;;;;24.77;13.85;;;4.30;99.90;;;;;;5041225;28;20228;-88
2022/01/29 05:57:21;;;;;;;28.30;14.10;;;4.30;99.90;;;;;;5031171;28;20229;-87
2022/01/29 06:00:10;;;;;;;31.10;15.65;;;4.30;99.90;;;;;;5040898;28;20353;-87
2022/01/29 06:03:00;;;;;;;26.88;14.00;;;4.30;99.90;;;;;;5037394;28;20213;-87
2022/01/29 06:05:46;;;;;;;28.63;15.10;;;4.30;99.90;;;;;;5038460;28;20196;-87
2022/01/29 06:08:31;;;;;;;24.45;14.43;;;4.30;99.90;;;;;;5028635;28;20636;-86
2022/01/29 06:11:17;;;;;;;30.55;13.85;;;4.30;99.90;;;;;;5034393;28;20356;-87
2022/01/29 06:14:03;;;;;;;25.80;15.30;;;4.30;99.90;;;;;;5034694;28;20309;-87
2022/01/29 06:16:50;;;;;;;25.73;14.85;;;4.40;99.90;;;;;;5035232;28;20248;-87
2022/01/29 06:19:35;;;;;;;23.73;13.70;;;4.40;99.90;;;;;;5034727;28;20333;-87
2022/01/29 06:22:22;;;;;;;24.70;13.30;;;4.40;99.90;;;;;;5034162;28;20276;-87
2022/01/29 06:25:08;;;;;;;25.95;13.90;;;4.30;99.90;;;;;;5035602;28;20208;-87
2022/01/29 06:27:53;;;;;;;23.50;12.77;;;4.20;99.90;;;;;;5046091;28;20296;-87
2022/01/29 06:30:39;;;;;;;27.98;13.93;;;4.20;99.90;;;;;;5036889;28;20205;-87
2022/01/29 06:33:26;;;;;;;27.38;12.68;;;4.10;99.90;;;;;;5035279;28;20256;-87
2022/01/29 06:36:12;;;;;;;23.05;12.13;;;4.10;99.90;;;;;;5043407;28;20220;-88
2022/01/29 06:38:58;;;;;;;22.17;12.60;;;4.10;99.90;;;;;;5037615;28;20595;-87
2022/01/29 06:41:43;;;;;;;21.80;11.13;;;4.10;99.90;;;;;;5029247;28;20709;-87
2022/01/29 06:44:29;;;;;;;24.33;12.65;;;4.10;99.90;;;;;;5027535;28;20753;-87
2022/01/29 06:47:15;;;;;;;19.17;11.45;;;4.10;99.90;;;;;;5039086;28;20238;-86
2022/01/29 06:50:02;;;;;;;20.00;11.95;;;4.20;99.90;;;;;;5041684;28;20197;-87
2022/01/29 06:52:48;;;;;;;22.35;11.10;;;4.20;99.90;;;;;;5031535;28;20205;-87
2022/01/29 06:55:34;;;;;;;20.25;11.65;;;4.20;99.90;;;;;;5035431;28;20268;-87
2022/01/29 06:58:20;;;;;;;21.70;11.88;;;4.10;99.90;;;;;;5038800;28;20638;-87
2022/01/29 07:01:06;;;;;;;23.58;12.10;;;4.10;99.90;;;;;;5040015;28;20205;-88
2022/01/29 07:03:52;;;;;;;22.33;12.20;;;4.10;99.90;;;;;;5028265;28;20337;-87
2022/01/29 07:06:39;;;;;;;26.65;12.07;;;4.20;99.90;;;;;;5025082;28;20198;-87
2022/01/29 07:09:24;;;;;;;22.58;10.80;;;4.20;99.90;;;;;;5046985;28;20213;-87
2022/01/29 07:12:12;;;;;;;16.95;10.63;;;4.20;99.90;;;;;;5033587;28;20201;-87
2022/01/29 07:14:58;;;;;;;26.63;10.50;;;4.10;99.90;;;;;;5030431;28;20221;-87
2022/01/29 07:17:43;;;;;;;16.77;10.35;;;4.10;99.90;;;;;;5039661;28;20756;-87
2022/01/29 07:20:29;;;;;;;20.65;9.82;;;4.10;99.90;;;;;;5027362;28;20291;-87
2022/01/29 07:23:16;;;;;;;18.20;11.25;;;4.10;99.90;;;;;;5035372;28;20196;-87
2022/01/29 07:26:02;;;;;;;20.85;10.38;;;4.10;99.90;;;;;;5048389;28;20217;-87
2022/01/29 07:28:48;;;;;;;18.90;11.00;;;4.10;99.90;;;;;;5033001;28;20322;-88
2022/01/29 07:31:33;;;;;;;15.02;9.02;;;4.10;99.90;;;;;;5023412;28;20205;-87
2022/01/29 07:34:19;;;;;;;18.88;9.73;;;4.00;99.90;;;;;;5033746;28;20209;-87
2022/01/29 07:37:05;;;;;;;16.92;10.13;;;4.10;99.90;;;;;;5040654;28;20194;-88
2022/01/29 07:39:53;;;;;;;17.52;9.40;;;4.10;99.90;;;;;;5038269;28;20268;-87
2022/01/29 07:42:39;;;;;;;20.00;9.75;;;4.00;99.90;;;;;;5033502;28;20579;-87
2022/01/29 07:45:24;;;;;;;20.73;10.15;;;4.00;99.90;;;;;;5042567;28;20207;-87
2022/01/29 07:48:10;;;;;;;16.33;8.60;;;3.90;99.90;;;;;;5056668;22;20337;-76
2022/01/29 07:50:55;;;;;;;16.98;9.18;;;3.90;99.90;;;;;;5083014;28;20243;-76
2022/01/29 07:53:41;;;;;;;15.70;8.68;;;4.00;99.90;;;;;;5073183;28;20243;-76
2022/01/29 07:56:28;;;;;;;25.80;11.43;;;4.00;99.90;;;;;;5056743;28;20208;-76
2022/01/29 07:59:14;;;;;;;18.73;9.52;;;4.10;99.90;;;;;;5033139;28;20190;-76
2022/01/29 08:02:00;;;;;;;17.65;9.38;;;4.10;99.90;;;;;;5056304;28;20695;-76
2022/01/29 08:04:46;;;;;;;22.80;9.68;;;4.10;99.90;;;;;;5073014;28;20326;-76
2022/01/29 08:07:31;;;;;;;17.02;9.95;;;4.00;99.90;;;;;;5061135;28;20325;-76
2022/01/29 08:10:17;;;;;;;14.70;10.45;;;4.00;99.90;;;;;;5056729;28;20314;-76
2022/01/29 08:13:04;;;;;;;16.17;11.02;;;4.10;99.90;;;;;;5057718;28;20197;-76
2022/01/29 08:15:50;;;;;;;18.85;11.25;;;4.10;99.90;;;;;;5043149;28;20200;-76
2022/01/29 08:18:35;;;;;;;17.13;10.40;;;4.00;99.90;;;;;;5053162;28;20319;-76
2022/01/29 08:21:21;;;;;;;21.65;11.95;;;4.00;99.90;;;;;;5063179;28;20211;-76
2022/01/29 08:24:07;;;;;;;22.30;11.68;;;4.00;99.90;;;;;;5051810;28;20630;-75
2022/01/29 08:26:53;;;;;;;22.92;11.18;;;4.10;99.90;;;;;;5052019;28;20235;-76
2022/01/29 08:29:40;;;;;;;19.42;11.02;;;4.10;99.90;;;;;;5051092;28;20565;-76
2022/01/29 08:32:26;;;;;;;22.45;11.32;;;4.20;99.90;;;;;;5043043;28;20319;-76
2022/01/29 08:35:14;;;;;;;21.58;11.60;;;4.30;99.90;;;;;;5071049;28;20590;-76
2022/01/29 08:38:00;;;;;;;21.42;13.40;;;4.30;99.90;;;;;;5058412;28;20208;-76
2022/01/29 08:40:45;;;;;;;21.92;12.10;;;4.30;99.90;;;;;;5047705;28;20300;-76
2022/01/29 08:43:32;;;;;;;20.55;12.27;;;4.30;99.90;;;;;;5055968;28;20229;-76
2022/01/29 08:46:19;;;;;;;24.85;11.88;;;4.30;99.90;;;;;;5054493;28;20193;-76
2022/01/29 08:49:05;;;;;;;22.60;12.48;;;4.10;99.90;;;;;;5059934;28;20335;-76
2022/01/29 08:51:50;;;;;;;24.35;13.35;;;4.20;99.90;;;;;;5052778;28;20252;-76
2022/01/29 08:54:36;;;;;;;24.17;13.60;;;4.20;99.90;;;;;;5061660;28;20224;-76
2022/01/29 08:57:22;;;;;;;25.83;12.55;;;4.20;99.90;;;;;;5059934;28;20681;-76
2022/01/29 09:00:10;;;;;;;25.67;12.57;;;4.30;99.90;;;;;;5039400;28;20248;-76
2022/01/29 09:02:57;;;;;;;18.58;11.85;;;4.40;99.90;;;;;;5060297;28;20200;-76
2022/01/29 09:05:44;;;;;;;20.63;11.25;;;4.30;99.90;;;;;;5058639;28;20262;-76
2022/01/29 09:08:30;;;;;;;19.95;11.20;;;4.20;99.90;;;;;;5033649;28;20605;-76
2022/01/29 09:11:16;;;;;;;19.08;9.88;;;4.30;99.90;;;;;;5045628;28;20200;-76
2022/01/29 09:14:02;;;;;;;18.08;11.25;;;4.30;99.90;;;;;;5064113;28;20596;-76
2022/01/29 09:16:48;;;;;;;23.58;13.25;;;4.30;99.90;;;;;;5035658;28;20217;-76
2022/01/29 09:19:35;;;;;;;23.85;12.88;;;4.20;99.90;;;;;;5052885;28;20275;-76
2022/01/29 09:22:21;;;;;;;18.15;11.18;;;4.20;99.90;;;;;;5072889;22;20212;-69
2022/01/29 09:25:07;;;;;;;15.98;10.55;;;4.20;99.90;;;;;;5063502;28;20662;-70
2022/01/29 09:27:53;;;;;;;20.50;11.93;;;4.30;99.90;;;;;;5071595;28;20492;-70
2022/01/29 09:30:39;;;;;;;19.63;10.52;;;4.40;99.90;;;;;;5066239;28;20195;-70
2022/01/29 09:33:25;;;;;;;18.38;10.50;;;4.40;99.90;;;;;;5068318;28;20279;-70
2022/01/29 09:36:12;;;;;;;20.73;12.10;;;4.50;99.90;;;;;;5061471;28;20228;-70
2022/01/29 09:38:58;;;;;;;22.58;11.05;;;4.50;99.90;;;;;;5053498;28;20494;-69
2022/01/29 09:41:45;;;;;;;19.00;10.90;;;4.40;99.90;;;;;;5053653;28;20201;-70
2022/01/29 09:44:33;;;;;;;21.60;10.93;;;4.40;99.90;;;;;;5061012;28;20812;-69
2022/01/29 09:47:22;;;;;;;20.60;12.07;;;4.30;99.90;;;;;;5059756;28;20244;-69
2022/01/29 09:50:09;;;;;;;17.83;11.07;;;4.30;99.90;;;;;;5047693;28;20253;-69
2022/01/29 09:52:56;;;;;;;16.88;11.07;;;4.20;99.90;;;;;;5066153;28;20287;-69
2022/01/29 09:55:43;;;;;;;18.77;11.68;;;4.20;99.90;;;;;;5052844;28;20236;-69
2022/01/29 09:58:29;;;;;;;20.33;12.40;;;4.30;99.90;;;;;;5048423;28;20205;-70
2022/01/29 10:01:14;;;;;;;17.97;10.67;;;4.30;99.90;;;;;;5040156;28;20201;-69
2022/01/29 10:04:02;;;;;;;16.42;10.32;;;4.30;99.90;;;;;;5053565;28;20622;-70
2022/01/29 10:07:15;;;;;;;19.15;11.48;;;4.30;99.90;;;;;;5061566;28;20680;-70
2022/01/29 10:10:03;;;;;;;19.20;11.10;;;4.30;99.90;;;;;;5052654;28;20247;-69
2022/01/29 10:12:49;;;;;;;19.02;11.18;;;4.30;99.90;;;;;;5048845;28;20589;-70
2022/01/29 10:15:35;;;;;;;20.95;10.05;;;4.30;99.90;;;;;;5049052;28;20229;-70
2022/01/29 10:18:24;;;;;;;17.15;11.20;;;4.30;99.90;;;;;;5057507;28;20220;-69
2022/01/29 10:21:14;;;;;;;22.35;10.63;;;4.40;99.90;;;;;;5062446;28;20266;-69
2022/01/29 10:24:04;;;;;;;19.10;11.30;;;4.40;99.90;;;;;;5060698;28;20224;-69
2022/01/29 10:26:52;;;;;;;23.77;11.57;;;4.40;99.90;;;;;;5053236;28;20420;-69
2022/01/29 10:29:38;;;;;;;17.33;10.13;;;4.40;99.90;;;;;;5046151;28;20293;-69
2022/01/29 10:32:25;;;;;;;22.88;11.77;;;4.40;99.90;;;;;;5055401;28;20229;-68
2022/01/29 10:35:11;;;;;;;20.88;12.38;;;4.40;99.90;;;;;;5053858;28;20300;-70
2022/01/29 10:37:58;;;;;;;16.98;11.48;;;4.40;99.90;;;;;;5051775;28;20189;-70
2022/01/29 10:40:43;;;;;;;20.50;12.32;;;4.40;99.90;;;;;;5053403;28;20200;-70
2022/01/29 10:43:31;;;;;;;19.52;11.23;;;4.40;99.90;;;;;;5050837;28;20224;-69
2022/01/29 10:46:24;;;;;;;21.10;11.68;;;4.40;99.90;;;;;;5053147;28;20197;-70
2022/01/29 10:49:17;;;;;;;18.13;11.40;;;4.50;99.90;;;;;;5044389;28;20565;-70
2022/01/29 10:52:06;;;;;;;21.00;12.25;;;4.60;99.90;;;;;;5050799;28;20285;-70
2022/01/29 10:54:59;;;;;;;17.10;11.50;;;4.50;99.90;;;;;;5058518;28;20232;-70
2022/01/29 10:57:46;;;;;;;21.02;13.10;;;4.50;99.90;;;;;;5055617;28;20601;-70
2022/01/29 11:00:35;;;;;;;19.15;11.50;;;4.50;99.90;;;;;;5041780;28;20208;-70
2022/01/29 11:03:21;;;;;;;22.83;13.00;;;4.50;99.90;;;;;;5050335;28;20230;-70
2022/01/29 11:06:08;;;;;;;20.83;13.13;;;4.50;99.90;;;;;;5054895;28;20252;-70
2022/01/29 11:08:55;;;;;;;16.40;11.67;;;4.50;99.90;;;;;;5049763;28;20201;-70
2022/01/29 11:11:45;;;;;;;21.55;11.80;;;4.60;99.90;;;;;;5046825;28;20440;-70
2022/01/29 11:14:33;;;;;;;21.77;13.25;;;4.70;99.90;;;;;;5050856;28;20204;-70
2022/01/29 11:17:20;;;;;;;20.13;12.52;;;4.70;99.90;;;;;;5048972;28;20220;-70
2022/01/29 11:20:07;;;;;;;19.17;12.15;;;4.70;99.90;;;;;;5040007;28;20197;-70
2022/01/29 11:22:54;;;;;;;19.63;12.80;;;4.60;99.90;;;;;;5054522;28;20228;-70
2022/01/29 11:25:40;;;;;;;26.85;12.35;;;4.60;99.90;;;;;;5046126;28;20435;-70
2022/01/29 11:28:28;;;;;;;18.20;11.45;;;4.60;99.90;;;;;;5049216;28;20216;-70
2022/01/29 11:31:24;;;;;;;22.53;12.37;;;4.50;99.90;;;;;;5044671;28;20663;-70
2022/01/29 11:34:22;;;;;;;18.07;11.70;;;4.50;99.90;;;;;;5049452;28;20476;-70
2022/01/29 11:37:08;;;;;;;20.02;12.05;;;4.60;99.90;;;;;;5041845;28;20553;-71
2022/01/29 11:40:15;;;;;;;18.88;11.40;;;4.60;99.90;;;;;;5054762;28;20211;-70
2022/01/29 11:43:07;;;;;;;16.67;10.88;;;4.50;99.90;;;;;;5052191;28;20598;-69
2022/01/29 11:45:58;;;;;;;18.23;12.20;;;4.50;99.90;;;;;;5046241;28;20196;-70
2022/01/29 11:48:57;;;;;;;20.90;12.38;;;4.40;99.90;;;;;;5047153;28;20328;-70
2022/01/29 11:51:48;;;;;;;22.60;12.50;;;4.40;99.90;;;;;;5049224;28;20201;-70
2022/01/29 11:54:59;;;;;;;15.45;10.98;;;4.40;99.90;;;;;;5041660;28;20280;-69
2022/01/29 11:58:27;;;;;;;16.50;10.93;;;4.40;99.90;;;;;;5046694;28;20271;-70
2022/01/29 12:01:31;;;;;;;18.80;12.03;;;4.30;99.90;;;;;;5022397;28;20256;-70
2022/01/29 12:04:17;;;;;;;18.40;11.32;;;4.40;99.90;;;;;;5047306;28;20466;-69
2022/01/29 12:07:14;;;;;;;19.73;11.32;;;4.40;99.90;;;;;;5045680;28;20291;-70
2022/01/29 12:10:04;;;;;;;17.70;13.02;;;4.40;99.90;;;;;;5047640;28;20674;-70
2022/01/29 12:13:10;;;;;;;20.05;13.02;;;4.30;99.90;;;;;;5046846;28;20224;-69
2022/01/29 12:15:55;;;;;;;18.25;11.75;;;4.30;99.90;;;;;;5045920;28;20200;-71
2022/01/29 12:18:41;;;;;;;19.33;12.35;;;4.30;99.90;;;;;;5050818;28;20197;-69
2022/01/29 12:21:28;;;;;;;19.93;12.03;;;4.30;99.90;;;;;;5045745;28;20576;-70
2022/01/29 12:24:20;;;;;;;17.00;12.03;;;4.40;99.90;;;;;;5046465;28;20467;-69
2022/01/29 12:27:06;;;;;;;22.85;13.63;;;4.40;99.90;;;;;;5048896;28;20437;-68
2022/01/29 12:29:52;;;;;;;23.55;13.30;;;4.50;99.90;;;;;;5049505;28;20197;-68
2022/01/29 12:32:38;;;;;;;21.35;12.45;;;4.50;99.90;;;;;;5045785;28;20236;-68
2022/01/29 12:35:33;;;;;;;19.67;11.52;;;4.50;99.90;;;;;;5045867;28;20212;-68
2022/01/29 12:38:23;;;;;;;19.48;11.43;;;4.40;99.90;;;;;;5050983;28;20205;-69
2022/01/29 12:41:13;;;;;;;20.00;11.90;;;4.50;99.90;;;;;;5048623;28;20201;-70
2022/01/29 12:44:02;;;;;;;19.43;12.10;;;4.60;99.90;;;;;;5044143;28;20513;-69
2022/01/29 12:46:48;;;;;;;17.45;10.32;;;4.60;99.90;;;;;;5047765;28;20589;-69
2022/01/29 12:49:41;;;;;;;15.98;10.85;;;4.60;99.90;;;;;;5056924;28;20204;-69
2022/01/29 12:52:28;;;;;;;19.17;11.20;;;4.60;99.90;;;;;;5049225;28;20217;-68
2022/01/29 12:55:14;;;;;;;18.55;11.20;;;4.70;99.90;;;;;;5045498;28;20504;-68
2022/01/29 12:58:01;;;;;;;16.85;10.32;;;4.70;99.90;;;;;;5037683;28;20208;-70
2022/01/29 13:01:00;;;;;;;15.15;10.55;;;4.70;99.90;;;;;;5051925;28;20205;-70
2022/01/29 13:03:46;;;;;;;17.10;10.47;;;4.60;99.90;;;;;;5047422;28;20343;-69
2022/01/29 13:06:31;;;;;;;16.65;11.73;;;4.70;99.90;;;;;;5065508;28;20946;-71
2022/01/29 13:09:19;;;;;;;19.90;9.88;;;4.70;99.90;;;;;;5054104;28;20227;-71
2022/01/29 13:12:07;;;;;;;16.40;10.93;;;4.60;99.90;;;;;;5055300;28;20766;-70
2022/01/29 13:14:54;;;;;;;19.65;11.73;;;4.60;99.90;;;;;;5061121;28;20200;-71
2022/01/29 13:17:42;;;;;;;14.95;10.38;;;4.60;99.90;;;;;;5049046;28;20228;-71
2022/01/29 13:20:28;;;;;;;17.33;11.77;;;4.60;99.90;;;;;;5056034;28;20207;-71
2022/01/29 13:23:14;;;;;;;17.02;11.05;;;4.70;99.90;;;;;;5058117;28;20479;-71
2022/01/29 13:26:00;;;;;;;17.50;11.48;;;4.70;99.90;;;;;;5065661;28;20200;-71
2022/01/29 13:28:48;;;;;;;14.40;9.32;;;4.70;99.90;;;;;;5053090;28;20286;-71
2022/01/29 13:31:45;;;;;;;15.20;10.45;;;4.80;99.90;;;;;;5053845;28;20243;-70
2022/01/29 13:34:33;;;;;;;15.30;9.33;;;4.70;99.90;;;;;;5058300;28;20264;-70
2022/01/29 13:37:30;;;;;;;16.45;9.38;;;4.70;99.90;;;;;;5051327;28;20870;-70
2022/01/29 13:40:20;;;;;;;14.63;9.60;;;4.70;99.90;;;;;;5059565;28;20204;-70
2022/01/29 13:43:08;;;;;;;16.55;9.07;;;4.80;99.90;;;;;;5063139;28;20236;-70
2022/01/29 13:45:56;;;;;;;15.75;10.70;;;4.80;99.90;;;;;;5058754;28;20205;-70
2022/01/29 13:48:45;;;;;;;12.90;8.52;;;4.80;99.90;;;;;;5050396;28;20268;-70
2022/01/29 13:51:33;;;;;;;15.32;8.82;;;4.70;99.90;;;;;;5059253;28;20736;-70
2022/01/29 13:54:23;;;;;;;12.30;8.40;;;4.70;99.90;;;;;;5057076;28;20241;-70
2022/01/29 13:57:10;;;;;;;14.40;9.15;;;4.80;99.90;;;;;;5051783;28;20214;-70
2022/01/29 14:00:03;;;;;;;13.75;9.13;;;4.80;99.90;;;;;;5058842;28;20224;-70
2022/01/29 14:02:49;;;;;;;16.73;9.05;;;4.80;99.90;;;;;;5051341;28;20224;-70
2022/01/29 14:05:36;;;;;;;12.60;8.73;;;4.80;99.90;;;;;;5063456;28;20196;-70
2022/01/29 14:08:23;;;;;;;11.98;8.60;;;4.80;99.90;;;;;;5048800;28;20280;-71
2022/01/29 14:11:14;;;;;;;13.30;8.33;;;4.80;99.90;;;;;;5059372;28;20235;-70
2022/01/29 14:14:00;;;;;;;12.73;8.07;;;4.90;99.90;;;;;;5058113;28;20797;-70
2022/01/29 14:16:46;;;;;;;12.07;8.02;;;4.90;99.90;;;;;;5043086;28;20356;-70
2022/01/29 14:19:32;;;;;;;11.52;7.60;;;4.90;99.90;;;;;;5060799;28;20565;-70
2022/01/29 14:22:20;;;;;;;13.65;9.52;;;4.80;99.90;;;;;;5057934;28;20204;-70
2022/01/29 14:25:08;;;;;;;12.00;7.75;;;4.90;99.90;;;;;;5058291;28;20717;-70
2022/01/29 14:27:55;;;;;;;11.63;7.40;;;4.90;99.90;;;;;;5052768;28;20201;-70
2022/01/29 14:30:41;;;;;;;11.15;6.45;;;4.90;99.90;;;;;;5062949;28;20431;-70